Time;durP1;ratioP1;P1;durP2;ratioP2;P2;SDS_P1;SDS_P2;PMS_P1;PMS_P2;Temp;Humidity;BMP_temperature;BMP_pressure;BME280_temperature;BME280_humidity;BME280_pressure;Samples;Min_cycle;Max_cycle;Signal;HPM_P1;HPM_P2
2022/03/14 00:01:39;;;;;;;14.63;9.15;;;;;;;4.84;58.45;97447.03;5033248;28;20659;-64
2022/03/14 00:04:06;;;;;;;20.75;9.05;;;;;;;4.99;58.20;97452.97;5025885;28;20037;-64
2022/03/14 00:06:35;;;;;;;15.38;8.48;;;;;;;5.12;57.67;97462.78;5026608;28;20069;-63
2022/03/14 00:09:06;;;;;;;13.40;7.65;;;;;;;5.21;56.96;97449.97;5026974;28;20038;-64
2022/03/14 00:11:35;;;;;;;16.40;8.30;;;;;;;5.28;56.39;97450.75;5026647;28;20426;-63
2022/03/14 00:14:06;;;;;;;19.70;8.48;;;;;;;5.28;57.10;97461.50;5026759;28;20042;-64
2022/03/14 00:16:36;;;;;;;16.08;8.95;;;;;;;5.30;57.31;97475.50;5026239;28;20056;-64
2022/03/14 00:19:03;;;;;;;16.48;8.68;;;;;;;5.28;56.95;97482.13;5026904;28;20044;-64
2022/03/14 00:21:29;;;;;;;14.88;8.35;;;;;;;5.39;56.28;97494.88;5025870;28;20041;-65
2022/03/14 00:23:57;;;;;;;15.65;8.60;;;;;;;5.51;55.33;97495.00;5026466;28;20029;-65
2022/03/14 00:26:25;;;;;;;16.80;9.38;;;;;;;5.22;57.99;97507.97;5026085;28;20119;-64
2022/03/14 00:28:53;;;;;;;17.52;9.40;;;;;;;5.28;56.65;97523.25;5025601;28;20103;-65
2022/03/14 00:31:20;;;;;;;18.27;9.82;;;;;;;5.47;55.54;97523.34;5025223;28;20072;-64
2022/03/14 00:33:47;;;;;;;15.93;9.40;;;;;;;5.69;54.41;97528.38;5026383;28;20056;-64
2022/03/14 00:36:14;;;;;;;16.67;8.40;;;;;;;5.89;54.07;97541.66;5026265;28;20037;-64
2022/03/14 00:38:41;;;;;;;21.75;10.43;;;;;;;6.48;51.84;97544.13;5026565;28;20052;-65
2022/03/14 00:41:08;;;;;;;18.92;10.30;;;;;;;7.27;50.78;97542.66;5026566;28;20076;-64
2022/03/14 00:43:35;;;;;;;23.40;11.50;;;;;;;7.67;51.01;97544.00;5025980;28;20049;-64
2022/03/14 00:46:02;;;;;;;22.88;12.77;;;;;;;7.95;51.59;97544.44;5025395;28;20053;-65
2022/03/14 00:48:32;;;;;;;23.20;11.90;;;;;;;8.07;52.09;97545.31;5025829;28;20049;-64
2022/03/14 00:50:59;;;;;;;22.63;12.00;;;;;;;8.03;52.14;97554.06;5025873;28;20504;-64
2022/03/14 00:53:25;;;;;;;22.52;13.10;;;;;;;8.02;54.10;97561.38;5025814;28;20041;-64
2022/03/14 00:55:52;;;;;;;24.23;14.23;;;;;;;8.11;59.20;97561.03;5025716;28;20112;-64
2022/03/14 00:58:19;;;;;;;21.17;12.23;;;;;;;8.09;62.13;97568.50;5026326;28;20431;-64
2022/03/14 01:00:48;;;;;;;18.73;12.50;;;;;;;8.02;66.47;97565.91;5031466;28;20748;-65
2022/03/14 01:03:15;;;;;;;21.70;12.55;;;;;;;7.97;67.63;97557.72;5025708;28;20049;-64
2022/03/14 01:05:42;;;;;;;23.08;14.18;;;;;;;7.84;70.21;97564.94;5024947;28;20061;-64
2022/03/14 01:08:09;;;;;;;17.13;12.27;;;;;;;7.80;71.39;97579.91;5025820;28;20037;-64
2022/03/14 01:10:35;;;;;;;19.13;13.27;;;;;;;7.75;71.92;97579.78;5025729;28;20049;-64
2022/03/14 01:13:03;;;;;;;18.33;11.20;;;;;;;7.70;72.86;97596.63;5025411;28;20528;-64
2022/03/14 01:15:33;;;;;;;13.80;9.52;;;;;;;7.69;73.09;97581.53;5025590;28;20708;-64
2022/03/14 01:18:00;;;;;;;16.77;10.95;;;;;;;7.64;73.78;97567.91;5025269;28;20037;-65
2022/03/14 01:20:27;;;;;;;18.30;10.02;;;;;;;7.59;74.11;97581.25;5024989;28;20812;-64
2022/03/14 01:22:56;;;;;;;15.23;9.55;;;;;;;7.56;74.05;97585.22;5025952;28;20045;-64
2022/03/14 01:25:26;;;;;;;14.35;9.13;;;;;;;7.55;73.83;97595.19;5025938;28;20038;-64
2022/03/14 01:27:54;;;;;;;16.27;8.05;;;;;;;7.54;74.19;97608.88;5028559;28;20057;-64
2022/03/14 01:30:21;;;;;;;13.00;8.00;;;;;;;7.56;73.24;97620.25;5025628;28;20033;-64
2022/03/14 01:32:48;;;;;;;11.18;7.18;;;;;;;7.54;73.02;97638.50;5025858;28;20095;-64
2022/03/14 01:35:17;;;;;;;12.07;5.00;;;;;;;7.51;73.33;97647.03;5025521;28;20049;-64
2022/03/14 01:37:47;;;;;;;9.13;4.47;;;;;;;7.46;73.75;97655.81;5025171;28;20676;-65
2022/03/14 01:40:18;;;;;;;;;;;;;;;7.44;74.26;97665.97;5026306;28;20057;-64
2022/03/14 01:42:46;;;;;;;8.32;4.78;;;;;;;7.29;76.16;97669.03;5025708;28;19921;-64
2022/03/14 01:45:15;;;;;;;8.95;4.75;;;;;;;7.25;76.93;97686.69;5025231;28;20041;-64
2022/03/14 01:47:43;;;;;;;6.95;3.88;;;;;;;7.21;77.25;97698.94;5025639;28;20049;-64
2022/03/14 01:50:12;;;;;;;8.15;4.43;;;;;;;7.09;78.29;97712.31;5026180;28;20091;-64
2022/03/14 01:52:39;;;;;;;7.70;4.43;;;;;;;7.09;78.96;97715.00;5025611;28;20038;-64
2022/03/14 01:55:07;;;;;;;8.35;4.35;;;;;;;7.09;78.98;97725.78;5025770;28;20107;-64
2022/03/14 01:57:34;;;;;;;8.77;4.47;;;;;;;7.04;78.98;97721.06;5025490;28;20052;-63
2022/03/14 02:00:02;;;;;;;6.47;3.53;;;;;;;7.06;79.03;97745.06;5025366;28;20091;-65
2022/03/14 02:02:29;;;;;;;6.15;3.00;;;;;;;6.96;79.48;97759.03;5026181;28;20421;-63
2022/03/14 02:04:55;;;;;;;5.32;2.85;;;;;;;6.90;80.04;97761.53;5014920;28;20037;-63
2022/03/14 02:07:23;;;;;;;5.82;2.75;;;;;;;6.86;80.49;97759.53;5025095;28;20053;-64
2022/03/14 02:09:49;;;;;;;5.38;2.72;;;;;;;6.79;80.64;97761.44;5025140;28;20057;-63
2022/03/14 02:12:16;;;;;;;5.20;2.70;;;;;;;6.71;81.05;97771.41;5024868;28;20053;-63
2022/03/14 02:14:43;;;;;;;4.90;2.13;;;;;;;6.67;81.25;97780.16;5025685;28;20041;-64
2022/03/14 02:17:15;;;;;;;4.75;2.28;;;;;;;6.59;81.44;97787.44;5024015;28;20049;-64
2022/03/14 02:19:42;;;;;;;4.97;2.55;;;;;;;6.54;81.54;97803.41;5025386;28;20536;-64
2022/03/14 02:22:14;;;;;;;5.20;2.22;;;;;;;6.57;81.68;97791.38;5025487;28;20037;-65
2022/03/14 02:24:42;;;;;;;3.92;1.73;;;;;;;6.56;81.51;97804.00;5024808;28;20537;-65
2022/03/14 02:27:11;;;;;;;3.90;1.83;;;;;;;6.63;81.01;97809.34;5024299;28;20682;-64
2022/03/14 02:29:39;;;;;;;3.70;1.88;;;;;;;6.61;81.29;97806.88;5025357;28;20527;-64
2022/03/14 02:32:07;;;;;;;2.83;1.63;;;;;;;6.62;80.94;97795.06;5025146;28;20046;-64
2022/03/14 02:34:34;;;;;;;6.05;2.58;;;;;;;6.52;81.85;97805.47;5024988;28;20038;-64
2022/03/14 02:37:02;;;;;;;4.40;2.08;;;;;;;6.55;81.72;97806.88;5024710;28;20045;-63
2022/03/14 02:39:32;;;;;;;3.80;1.73;;;;;;;6.55;81.45;97818.50;5024801;28;20067;-64
2022/03/14 02:42:02;;;;;;;3.85;2.00;;;;;;;6.52;82.08;97818.91;5024522;28;20045;-64
2022/03/14 02:44:28;;;;;;;5.13;2.10;;;;;;;6.63;81.51;97825.47;5024261;28;20048;-65
2022/03/14 02:46:56;;;;;;;3.53;1.65;;;;;;;6.68;81.06;97811.38;5027154;28;20044;-64
2022/03/14 02:49:23;;;;;;;3.33;1.95;;;;;;;6.61;81.61;97814.97;5029331;28;20460;-64
2022/03/14 02:51:51;;;;;;;3.88;2.05;;;;;;;6.69;81.05;97824.63;5015462;28;20107;-65
2022/03/14 02:54:17;;;;;;;3.70;1.90;;;;;;;6.67;81.02;97825.91;5027362;28;20037;-65
2022/03/14 02:56:44;;;;;;;3.13;1.50;;;;;;;6.73;80.83;97835.78;5028713;28;20397;-64
2022/03/14 02:59:12;;;;;;;4.10;2.20;;;;;;;6.74;80.62;97835.56;5038606;28;20528;-64
2022/03/14 03:01:39;;;;;;;3.58;1.80;;;;;;;6.68;81.02;97824.84;5030227;28;20045;-64
2022/03/14 03:04:06;;;;;;;4.07;2.33;;;;;;;6.63;81.94;97828.16;5027702;28;20041;-64
2022/03/14 03:06:33;;;;;;;4.95;2.55;;;;;;;6.46;82.90;97839.44;5028175;28;20772;-64
2022/03/14 03:09:03;;;;;;;5.05;2.00;;;;;;;6.45;82.77;97845.03;5027957;28;20540;-64
2022/03/14 03:11:31;;;;;;;5.28;2.47;;;;;;;6.30;84.07;97856.06;5027944;28;20128;-64
2022/03/14 03:13:59;;;;;;;3.83;2.15;;;;;;;6.19;84.40;97871.81;5027607;28;20049;-66
2022/03/14 03:16:26;;;;;;;4.28;2.05;;;;;;;6.18;85.03;97872.00;5027067;28;20124;-65
2022/03/14 03:18:53;;;;;;;5.68;2.60;;;;;;;6.14;85.37;97878.84;5026911;28;20041;-65
2022/03/14 03:21:20;;;;;;;5.28;2.92;;;;;;;6.17;84.87;97881.97;5032371;28;20068;-64
2022/03/14 03:23:47;;;;;;;4.75;2.35;;;;;;;6.15;85.46;97888.59;5048419;28;20044;-64
2022/03/14 03:26:15;;;;;;;5.18;2.38;;;;;;;6.16;85.50;97893.72;5031780;28;20038;-64
2022/03/14 03:28:42;;;;;;;4.10;2.33;;;;;;;6.18;85.08;97899.72;5027644;28;20053;-65
2022/03/14 03:31:17;;;;;;;4.65;2.55;;;;;;;6.18;85.27;97904.28;5027054;28;20045;-64
2022/03/14 03:33:44;;;;;;;5.30;2.70;;;;;;;6.18;85.65;97912.34;5015057;28;20030;-64
2022/03/14 03:36:11;;;;;;;4.47;2.42;;;;;;;6.18;85.60;97920.41;5027066;28;20037;-64
2022/03/14 03:38:38;;;;;;;4.55;2.35;;;;;;;6.15;85.67;97934.28;5026968;28;20041;-64
2022/03/14 03:41:06;;;;;;;4.45;2.30;;;;;;;6.15;85.94;97932.41;5026528;28;20056;-64
2022/03/14 03:43:33;;;;;;;6.30;2.63;;;;;;;6.13;86.15;97925.59;5026586;28;20064;-64
2022/03/14 03:45:59;;;;;;;4.80;2.75;;;;;;;6.11;86.41;97923.94;5026206;28;20049;-64
2022/03/14 03:48:26;;;;;;;5.22;2.30;;;;;;;6.28;85.45;97928.03;5026922;28;20120;-64
2022/03/14 03:50:52;;;;;;;3.80;2.22;;;;;;;6.21;85.63;97936.97;5026778;28;20099;-64
2022/03/14 03:53:21;;;;;;;6.00;2.30;;;;;;;6.16;85.77;97933.25;5028155;28;20053;-64
2022/03/14 03:55:48;;;;;;;4.88;2.22;;;;;;;6.12;85.75;97932.84;5024144;28;20727;-65
2022/03/14 03:58:16;;;;;;;4.97;2.20;;;;;;;6.14;85.34;97933.47;5026317;28;20049;-64
2022/03/14 04:00:43;;;;;;;3.88;2.10;;;;;;;6.20;84.76;97937.19;5029231;28;20072;-65
2022/03/14 04:03:10;;;;;;;3.67;1.70;;;;;;;6.20;84.91;97939.88;5027123;28;20083;-65
2022/03/14 04:05:39;;;;;;;5.75;1.83;;;;;;;6.19;84.72;97946.28;5025634;28;20127;-64
2022/03/14 04:08:10;;;;;;;5.28;2.08;;;;;;;6.05;85.57;97948.16;5007562;28;20569;-64
2022/03/14 04:10:38;;;;;;;3.58;1.85;;;;;;;6.01;86.25;97953.06;5021540;28;20077;-63
2022/03/14 04:13:05;;;;;;;3.85;1.73;;;;;;;6.05;86.19;97957.03;5027724;28;20452;-64
2022/03/14 04:15:50;;;;;;;4.10;1.70;;;;;;;6.01;85.73;97950.38;5026865;28;20409;-64
2022/03/14 04:18:20;;;;;;;3.70;1.60;;;;;;;6.11;86.99;97956.22;5027208;28;20568;-64
2022/03/14 04:20:48;;;;;;;5.15;1.92;;;;;;;6.08;86.74;97970.06;5027354;28;20053;-65
2022/03/14 04:23:15;;;;;;;5.70;1.98;;;;;;;5.75;87.83;97991.53;5027049;28;20121;-63
2022/03/14 04:25:43;;;;;;;4.38;2.05;;;;;;;5.87;87.27;98000.66;5026083;28;20037;-64
2022/03/14 04:28:11;;;;;;;2.95;1.70;;;;;;;5.80;87.55;98003.34;5026845;28;20045;-64
2022/03/14 04:30:38;;;;;;;3.72;1.27;;;;;;;5.99;86.16;98008.91;5027062;28;20087;-64
2022/03/14 04:33:08;;;;;;;2.58;1.30;;;;;;;6.05;84.67;98026.94;5026267;28;20416;-64
2022/03/14 04:35:36;;;;;;;2.17;1.08;;;;;;;6.16;82.44;98030.84;5026410;28;20048;-63
2022/03/14 04:38:04;;;;;;;3.03;0.95;;;;;;;6.31;81.42;98038.75;5026528;28;20053;-64
2022/03/14 04:40:34;;;;;;;1.17;0.60;;;;;;;6.42;79.92;98053.44;5036532;28;20076;-63
2022/03/14 04:43:05;;;;;;;1.25;0.50;;;;;;;6.42;78.87;98058.81;5026864;28;20042;-64
2022/03/14 04:45:32;;;;;;;1.05;0.57;;;;;;;6.57;77.83;98057.75;5026384;28;20064;-64
2022/03/14 04:47:59;;;;;;;0.98;0.47;;;;;;;6.65;77.22;98068.28;5023212;28;20037;-64
2022/03/14 04:50:26;;;;;;;0.85;0.50;;;;;;;6.57;77.97;98069.34;5031917;28;20037;-64
2022/03/14 04:52:54;;;;;;;1.42;0.50;;;;;;;6.61;77.31;98070.59;5027854;28;20501;-64
2022/03/14 04:55:20;;;;;;;0.85;0.40;;;;;;;6.48;77.48;98071.41;5026031;28;20053;-64
2022/03/14 04:57:47;;;;;;;0.55;0.40;;;;;;;6.44;76.41;98069.34;5024762;28;20060;-65
2022/03/14 05:00:17;;;;;;;1.65;0.50;;;;;;;6.40;75.38;98063.56;5025796;28;20046;-64
2022/03/14 05:02:44;;;;;;;1.60;0.40;;;;;;;6.48;74.64;98059.81;5026531;28;20818;-65
2022/03/14 05:05:11;;;;;;;1.55;0.40;;;;;;;6.38;74.71;98054.88;5026299;28;20041;-64
2022/03/14 05:07:40;;;;;;;1.20;0.40;;;;;;;6.41;75.42;98054.44;5025498;28;20045;-64
2022/03/14 05:10:07;;;;;;;1.48;0.50;;;;;;;6.36;74.60;98052.41;5034612;28;20052;-64
2022/03/14 05:12:34;;;;;;;2.05;0.50;;;;;;;6.36;74.18;98067.69;5025635;28;20049;-64
2022/03/14 05:15:01;;;;;;;2.10;0.47;;;;;;;6.33;74.41;98065.41;5025517;28;20099;-65
2022/03/14 05:17:30;;;;;;;2.33;0.50;;;;;;;6.33;73.85;98074.31;5023697;28;20050;-65
2022/03/14 05:19:57;;;;;;;1.95;0.50;;;;;;;6.31;73.63;98086.31;5032843;28;20763;-65
2022/03/14 05:22:24;;;;;;;1.77;0.40;;;;;;;6.25;74.08;98093.34;5025763;28;20050;-65
2022/03/14 05:24:51;;;;;;;1.20;0.40;;;;;;;6.16;74.42;98091.91;5024730;28;20701;-65
2022/03/14 05:27:18;;;;;;;3.47;0.90;;;;;;;6.15;73.04;98098.31;5029403;28;20037;-65
2022/03/14 05:29:44;;;;;;;4.03;0.50;;;;;;;6.03;73.34;98109.66;5036050;28;20041;-65
2022/03/14 05:32:11;;;;;;;1.90;0.50;;;;;;;6.07;73.90;98108.22;5026142;28;20777;-65
2022/03/14 05:34:38;;;;;;;5.18;0.88;;;;;;;5.97;74.24;98113.97;5025229;28;20517;-64
2022/03/14 05:37:04;;;;;;;2.83;0.63;;;;;;;6.01;73.38;98114.38;5025067;28;20136;-65
2022/03/14 05:39:31;;;;;;;2.92;0.70;;;;;;;6.10;71.70;98125.81;5025604;28;20049;-64
2022/03/14 05:41:59;;;;;;;4.63;0.68;;;;;;;5.99;71.88;98133.41;5025772;28;20522;-65
2022/03/14 05:44:26;;;;;;;5.47;0.90;;;;;;;5.91;72.64;98125.53;5022946;28;20053;-65
2022/03/14 05:46:52;;;;;;;6.95;0.93;;;;;;;5.82;73.10;98140.19;5021958;28;20034;-64
2022/03/14 05:49:19;;;;;;;5.95;0.98;;;;;;;5.75;72.84;98142.03;5018583;28;20061;-65
2022/03/14 05:51:46;;;;;;;5.95;0.90;;;;;;;5.84;72.44;98141.66;5023169;28;20103;-67
2022/03/14 05:54:13;;;;;;;3.50;0.60;;;;;;;5.80;71.94;98145.78;5021580;28;20065;-64
2022/03/14 05:56:40;;;;;;;7.50;1.05;;;;;;;5.82;72.06;98146.38;5026619;28;20118;-66
2022/03/14 05:59:08;;;;;;;4.63;0.82;;;;;;;5.79;72.21;98154.84;5021003;28;20047;-64
2022/03/14 06:01:38;;;;;;;4.03;0.93;;;;;;;5.75;72.27;98145.53;5027323;28;20049;-65
2022/03/14 06:04:05;;;;;;;4.28;0.75;;;;;;;5.67;72.75;98156.44;5023280;28;20055;-66
2022/03/14 06:06:31;;;;;;;8.23;1.10;;;;;;;5.65;72.51;98163.91;5022486;28;20042;-64
2022/03/14 06:08:58;;;;;;;6.88;1.17;;;;;;;5.67;72.69;98164.50;5022557;28;20061;-65
2022/03/14 06:11:24;;;;;;;2.60;0.80;;;;;;;5.61;72.73;98155.41;5023241;28;20041;-64
2022/03/14 06:13:51;;;;;;;2.50;0.60;;;;;;;5.57;72.47;98168.41;5022394;28;20095;-64
2022/03/14 06:16:17;;;;;;;4.13;1.05;;;;;;;5.52;73.01;98176.25;5023743;28;20041;-63
2022/03/14 06:18:44;;;;;;;6.97;1.42;;;;;;;5.44;73.20;98179.09;5022122;28;20068;-66
2022/03/14 06:21:11;;;;;;;4.32;0.75;;;;;;;5.52;72.78;98189.66;5023664;28;20057;-68
2022/03/14 06:23:37;;;;;;;6.82;1.13;;;;;;;5.50;72.69;98193.59;5023333;28;20053;-65
2022/03/14 06:26:04;;;;;;;6.30;1.20;;;;;;;5.28;73.92;98194.50;5024817;28;20767;-66
2022/03/14 06:28:30;;;;;;;5.78;0.90;;;;;;;5.41;72.27;98200.97;5025175;28;20049;-65
2022/03/14 06:30:57;;;;;;;5.93;1.20;;;;;;;5.51;72.08;98204.13;5021451;28;20080;-66
2022/03/14 06:33:24;;;;;;;6.57;1.08;;;;;;;5.36;73.64;98208.78;5025703;28;20060;-64
2022/03/14 06:35:51;;;;;;;4.28;1.05;;;;;;;5.28;74.07;98207.94;5024678;28;20124;-67
2022/03/14 06:38:18;;;;;;;3.08;0.73;;;;;;;5.40;73.16;98218.09;5026458;28;20386;-65
2022/03/14 06:40:44;;;;;;;4.53;1.25;;;;;;;5.45;73.26;98219.19;5029325;28;20042;-68
2022/03/14 06:43:12;;;;;;;5.65;1.00;;;;;;;5.37;73.32;98218.50;5029928;28;20424;-67
2022/03/14 06:45:39;;;;;;;4.18;1.13;;;;;;;5.43;73.14;98223.09;5025918;28;20045;-66
2022/03/14 06:48:06;;;;;;;7.78;1.40;;;;;;;5.47;72.90;98222.50;5026844;28;20049;-65
2022/03/14 06:50:36;;;;;;;5.55;0.85;;;;;;;5.52;72.75;98232.66;5023436;28;20065;-67
2022/03/14 06:53:03;;;;;;;8.07;1.55;;;;;;;5.64;72.08;98229.41;5025109;28;20037;-66
2022/03/14 06:55:30;;;;;;;2.58;0.73;;;;;;;5.68;72.08;98225.31;5025635;28;20493;-66
2022/03/14 06:57:57;;;;;;;9.90;1.33;;;;;;;5.77;72.07;98231.31;5026088;28;20045;-66
2022/03/14 07:00:24;;;;;;;4.55;1.00;;;;;;;5.81;71.51;98227.22;5019645;28;20088;-68
2022/03/14 07:02:51;;;;;;;4.07;1.10;;;;;;;5.93;70.85;98228.28;5017975;28;20126;-67
2022/03/14 07:05:20;;;;;;;7.05;1.17;;;;;;;5.95;71.86;98225.41;5024906;28;20099;-67
2022/03/14 07:07:48;;;;;;;4.93;1.20;;;;;;;5.97;70.76;98236.81;5025115;28;20451;-69
2022/03/14 07:10:16;;;;;;;5.85;0.95;;;;;;;6.07;70.62;98234.59;5024626;28;20053;-67
2022/03/14 07:12:46;;;;;;;6.68;1.00;;;;;;;6.07;70.53;98248.03;5026783;28;20049;-66
2022/03/14 07:15:15;;;;;;;3.53;0.85;;;;;;;6.26;69.32;98247.47;5026400;28;20037;-66
2022/03/14 07:17:43;;;;;;;7.03;1.85;;;;;;;6.31;69.66;98251.22;5025191;28;20041;-67
2022/03/14 07:20:11;;;;;;;2.78;0.90;;;;;;;6.34;69.79;98260.75;5028644;28;20042;-67
2022/03/14 07:23:07;;;;;;;7.20;1.15;;;;;;;6.44;69.79;98263.03;5026965;28;20057;-67
2022/03/14 07:25:40;;;;;;;4.00;1.08;;;;;;;6.53;69.62;98263.69;5026843;28;20419;-67
2022/03/14 07:28:09;;;;;;;8.45;1.20;;;;;;;6.55;69.00;98261.59;5025708;28;20156;-65
2022/03/14 07:30:37;;;;;;;4.55;0.93;;;;;;;6.42;69.35;98265.09;5025637;28;20076;-65
2022/03/14 07:33:04;;;;;;;4.43;0.88;;;;;;;6.48;69.31;98269.66;5026258;28;20040;-65
2022/03/14 07:35:31;;;;;;;3.20;1.00;;;;;;;6.57;70.14;98275.69;5025678;28;20049;-66
2022/03/14 07:37:58;;;;;;;9.68;1.08;;;;;;;6.64;69.79;98279.25;5026099;28;20048;-65
2022/03/14 07:40:25;;;;;;;3.45;0.90;;;;;;;6.63;70.21;98297.25;5024470;28;20125;-65
2022/03/14 07:42:53;;;;;;;4.82;1.00;;;;;;;6.72;68.99;98305.13;5027558;28;20053;-68
2022/03/14 07:45:24;;;;;;;5.30;1.65;;;;;;;6.82;68.71;98305.56;5045544;28;20049;-67
2022/03/14 07:47:53;;;;;;;2.42;0.70;;;;;;;6.96;68.78;98310.97;5029976;28;20061;-67
2022/03/14 07:50:21;;;;;;;3.45;0.65;;;;;;;7.17;65.96;98315.34;5023569;28;20041;-66
2022/03/14 07:52:48;;;;;;;3.78;0.80;;;;;;;7.31;66.60;98324.25;5025671;28;20538;-68
2022/03/14 07:55:15;;;;;;;4.07;1.02;;;;;;;7.28;66.66;98324.66;5026471;28;20049;-66
2022/03/14 07:57:43;;;;;;;4.25;0.90;;;;;;;7.22;67.14;98322.81;5025267;28;20052;-69
2022/03/14 08:00:11;;;;;;;4.63;0.90;;;;;;;7.29;66.36;98332.53;5028548;28;20048;-67
2022/03/14 08:02:41;;;;;;;7.28;0.73;;;;;;;7.23;66.09;98329.84;5023348;28;20139;-67
2022/03/14 08:05:10;;;;;;;3.33;0.93;;;;;;;7.14;65.87;98330.06;5026127;28;20045;-67
2022/03/14 08:07:37;;;;;;;3.42;0.82;;;;;;;7.24;66.25;98336.88;5024949;28;20115;-67
2022/03/14 08:10:09;;;;;;;3.40;0.90;;;;;;;7.42;66.38;98337.09;5024656;28;20053;-67
2022/03/14 08:12:51;;;;;;;3.85;1.55;;;;;;;7.66;65.34;98345.59;5025491;28;20053;-66
2022/03/14 08:15:31;;;;;;;6.00;0.73;;;;;;;7.51;64.75;98343.13;5024852;28;20049;-66
2022/03/14 08:18:05;;;;;;;5.20;0.77;;;;;;;7.47;65.01;98355.34;5024925;28;20041;-67
2022/03/14 08:20:32;;;;;;;4.72;1.27;;;;;;;7.44;64.52;98363.03;5038343;28;20048;-66
2022/03/14 08:23:02;;;;;;;1.88;0.85;;;;;;;7.50;61.18;98370.25;5024524;28;20049;-66
2022/03/14 08:25:31;;;;;;;6.32;1.20;;;;;;;7.60;61.75;98368.00;5025072;28;20045;-65
2022/03/14 08:27:58;;;;;;;4.57;1.05;;;;;;;7.49;59.44;98371.31;5025220;28;20068;-65
2022/03/14 08:30:25;;;;;;;3.92;0.85;;;;;;;7.64;58.51;98371.94;5025331;28;20060;-66
2022/03/14 08:32:54;;;;;;;4.72;1.13;;;;;;;7.75;58.88;98383.13;5030856;28;20049;-66
2022/03/14 08:35:20;;;;;;;5.43;1.23;;;;;;;7.77;58.16;98383.72;5024505;28;20061;-66
2022/03/14 08:37:50;;;;;;;7.00;1.20;;;;;;;7.91;57.63;98382.69;5025089;28;20041;-66
2022/03/14 08:40:21;;;;;;;5.10;1.02;;;;;;;7.92;58.11;98383.50;5025698;28;20053;-66
2022/03/14 08:42:49;;;;;;;5.37;1.13;;;;;;;7.62;57.47;98389.31;5040139;28;20052;-66
2022/03/14 08:45:16;;;;;;;5.18;1.00;;;;;;;7.54;57.70;98403.84;5027283;28;20287;-65
2022/03/14 08:47:43;;;;;;;4.07;1.05;;;;;;;7.75;58.08;98393.91;5025025;28;20042;-65
2022/03/14 08:50:11;;;;;;;7.38;1.05;;;;;;;7.89;57.52;98392.03;5023978;28;20057;-65
2022/03/14 08:52:38;;;;;;;6.22;0.90;;;;;;;8.10;55.68;98400.94;5024440;28;20115;-66
2022/03/14 08:55:05;;;;;;;1.77;0.63;;;;;;;8.24;55.65;98389.06;5024262;28;20831;-66
2022/03/14 08:57:38;;;;;;;3.42;0.88;;;;;;;8.16;56.91;98397.38;5026724;28;20722;-66
2022/03/14 09:00:07;;;;;;;6.35;0.90;;;;;;;8.09;56.41;98401.94;5034746;28;20045;-66
2022/03/14 09:02:35;;;;;;;3.17;1.00;;;;;;;7.87;57.81;98405.72;5024992;28;20516;-66
2022/03/14 09:05:03;;;;;;;6.38;1.10;;;;;;;7.87;57.99;98407.56;5023925;28;20049;-65
2022/03/14 09:07:31;;;;;;;4.40;0.90;;;;;;;7.65;57.01;98392.47;5023648;28;20046;-67
2022/03/14 09:10:05;;;;;;;4.50;1.23;;;;;;;7.73;58.59;98395.97;5023870;28;20046;-66
2022/03/14 09:12:35;;;;;;;4.55;1.02;;;;;;;7.75;57.86;98397.44;5022282;28;20049;-64
2022/03/14 09:15:03;;;;;;;5.97;1.02;;;;;;;7.92;57.55;98405.91;5022679;28;20104;-64
2022/03/14 09:17:31;;;;;;;4.32;0.73;;;;;;;8.13;56.85;98397.78;5022885;28;20675;-65
2022/03/14 09:19:58;;;;;;;5.07;1.38;;;;;;;8.31;57.12;98406.06;5024469;28;20041;-66
2022/03/14 09:22:25;;;;;;;5.82;1.38;;;;;;;8.41;55.72;98394.81;5024091;28;20053;-65
2022/03/14 09:24:52;;;;;;;4.00;0.80;;;;;;;8.49;55.23;98391.06;5024379;28;20107;-66
2022/03/14 09:27:18;;;;;;;5.03;1.33;;;;;;;8.62;54.91;98390.19;5023725;28;20045;-65
2022/03/14 09:29:45;;;;;;;3.88;0.90;;;;;;;8.69;55.42;98393.72;5023669;28;20072;-65
2022/03/14 09:32:13;;;;;;;2.13;0.60;;;;;;;8.82;53.54;98390.09;5024824;28;20052;-66
2022/03/14 09:34:40;;;;;;;3.53;0.95;;;;;;;8.90;54.43;98391.75;5032007;28;20060;-66
2022/03/14 09:37:07;;;;;;;3.78;0.73;;;;;;;9.02;52.97;98388.34;5024066;28;20045;-67
2022/03/14 09:39:34;;;;;;;5.63;1.17;;;;;;;9.11;53.72;98405.97;5023784;28;20092;-65
2022/03/14 09:42:02;;;;;;;4.13;0.80;;;;;;;9.22;51.88;98399.03;5023332;28;20041;-66
2022/03/14 09:44:30;;;;;;;9.32;1.02;;;;;;;9.37;52.61;98390.63;5024164;28;20052;-68
2022/03/14 09:47:03;;;;;;;7.47;1.10;;;;;;;9.39;51.73;98399.34;5022041;28;20045;-67
2022/03/14 09:49:33;;;;;;;3.33;0.93;;;;;;;9.51;48.17;98410.25;5023642;28;20537;-64
2022/03/14 09:52:00;;;;;;;4.20;0.75;;;;;;;9.45;48.46;98408.44;5023213;28;20100;-64
2022/03/14 09:54:27;;;;;;;2.92;0.77;;;;;;;9.53;50.23;98408.19;5019525;28;20042;-65
2022/03/14 09:56:58;;;;;;;4.22;0.50;;;;;;;9.62;50.54;98416.88;5023625;28;20076;-67
2022/03/14 09:59:25;;;;;;;3.70;0.63;;;;;;;9.57;48.55;98425.63;5023570;28;20045;-66
2022/03/14 10:01:52;;;;;;;2.58;0.65;;;;;;;9.63;49.78;98416.63;5030296;28;20068;-65
2022/03/14 10:04:19;;;;;;;6.65;0.80;;;;;;;9.84;48.11;98428.09;5040559;28;20072;-67
2022/03/14 10:06:45;;;;;;;1.85;0.40;;;;;;;9.67;47.98;98427.00;5027707;28;20046;-66
2022/03/14 10:09:12;;;;;;;2.65;0.63;;;;;;;9.75;47.42;98432.16;5027575;28;20193;-65
2022/03/14 10:11:39;;;;;;;4.03;0.82;;;;;;;9.82;48.04;98429.38;5027727;28;20755;-65
2022/03/14 10:14:10;;;;;;;4.28;1.02;;;;;;;9.95;48.34;98433.88;5027228;28;20045;-65
2022/03/14 10:16:37;;;;;;;6.50;0.88;;;;;;;9.93;48.10;98423.25;5027107;28;20099;-66
2022/03/14 10:19:09;;;;;;;6.97;0.80;;;;;;;10.10;47.52;98420.00;5027661;28;20056;-66
2022/03/14 10:21:41;;;;;;;4.07;0.60;;;;;;;10.32;46.56;98424.97;5026973;28;20033;-67
2022/03/14 10:24:12;;;;;;;3.50;0.90;;;;;;;10.36;45.65;98423.47;5029399;28;20053;-68
2022/03/14 10:26:41;;;;;;;4.28;1.00;;;;;;;10.49;45.15;98427.94;5038096;28;20072;-67
2022/03/14 10:29:12;;;;;;;2.05;0.45;;;;;;;10.48;44.32;98429.00;5026621;28;20034;-67
2022/03/14 10:31:40;;;;;;;3.97;0.88;;;;;;;10.48;44.81;98426.28;5027995;28;20122;-66
2022/03/14 10:34:18;;;;;;;4.82;0.70;;;;;;;10.44;44.65;98420.50;5034188;28;20046;-67
2022/03/14 10:36:46;;;;;;;3.60;0.70;;;;;;;10.54;43.67;98428.91;5019031;28;20674;-68
2022/03/14 10:39:27;;;;;;;3.28;0.80;;;;;;;10.58;43.46;98421.16;5026826;28;20054;-67
2022/03/14 10:42:02;;;;;;;1.20;0.40;;;;;;;10.76;44.50;98422.22;5026234;28;20096;-68
2022/03/14 10:44:45;;;;;;;0.60;0.30;;;;;;;11.08;44.06;98413.88;5029720;28;20052;-69
2022/03/14 10:47:13;;;;;;;2.60;0.47;;;;;;;11.30;43.02;98435.91;5027910;28;20044;-67
2022/03/14 10:49:43;;;;;;;4.35;0.80;;;;;;;11.34;42.92;98440.84;5028343;28;20914;-67
2022/03/14 10:52:13;;;;;;;1.15;0.40;;;;;;;10.91;42.37;98452.44;5026728;28;20060;-67
2022/03/14 10:54:41;;;;;;;5.13;0.80;;;;;;;11.18;42.76;98440.44;5021884;28;20152;-67
2022/03/14 10:57:10;;;;;;;2.00;0.55;;;;;;;11.08;42.59;98442.88;5026540;28;20044;-66
2022/03/14 10:59:37;;;;;;;1.25;0.30;;;;;;;11.34;43.57;98443.56;5027403;28;20049;-66
2022/03/14 11:02:10;;;;;;;1.95;0.90;;;;;;;11.47;43.45;98442.53;5027686;28;20053;-65
2022/03/14 11:04:48;;;;;;;3.05;0.50;;;;;;;11.45;41.39;98445.50;5033993;28;20083;-66
2022/03/14 11:07:16;;;;;;;3.90;0.82;;;;;;;11.40;43.19;98453.50;5026775;28;20053;-66
2022/03/14 11:09:48;;;;;;;3.60;0.80;;;;;;;11.19;44.84;98450.22;5025791;28;20121;-69
2022/03/14 11:12:15;;;;;;;;;;;;;;;10.99;45.00;98445.88;5027067;28;20413;-66
2022/03/14 11:14:42;;;;;;;1.77;0.50;;;;;;;10.90;45.19;98439.97;5025021;28;19932;-68
2022/03/14 11:17:17;;;;;;;2.90;0.47;;;;;;;10.79;46.65;98446.13;5029889;28;20107;-66
2022/03/14 11:19:44;;;;;;;4.28;0.70;;;;;;;10.58;45.24;98447.44;5034195;28;20055;-68
2022/03/14 11:22:12;;;;;;;2.40;0.60;;;;;;;10.38;46.96;98445.72;5025187;28;20111;-66
2022/03/14 11:24:42;;;;;;;3.30;0.60;;;;;;;10.21;48.00;98432.78;5026903;28;20060;-66
2022/03/14 11:27:17;;;;;;;3.67;0.70;;;;;;;10.31;48.32;98439.56;5018986;28;20045;-67
2022/03/14 11:29:45;;;;;;;2.90;0.60;;;;;;;10.28;47.82;98430.84;5031116;28;20107;-68
2022/03/14 11:32:15;;;;;;;5.47;1.00;;;;;;;10.43;47.44;98429.63;5026355;28;20073;-65
2022/03/14 11:35:02;;;;;;;2.47;0.70;;;;;;;10.53;47.36;98426.44;5025254;28;20049;-66
2022/03/14 11:37:31;;;;;;;2.67;0.60;;;;;;;10.68;46.80;98415.22;5026074;28;20252;-66
2022/03/14 11:40:00;;;;;;;2.70;0.68;;;;;;;10.86;46.87;98419.81;5025657;28;20643;-66
2022/03/14 11:42:27;;;;;;;2.08;0.60;;;;;;;11.08;46.35;98423.88;5033325;28;20695;-66
2022/03/14 11:44:54;;;;;;;1.98;0.50;;;;;;;11.29;43.78;98426.13;5026363;28;20491;-66